Time;durP1;ratioP1;P1;durP2;ratioP2;P2;SDS_P1;SDS_P2;PMS_P1;PMS_P2;Temp;Humidity;BMP_temperature;BMP_pressure;BME280_temperature;BME280_humidity;BME280_pressure;Samples;Min_cycle;Max_cycle;Signal;HPM_P1;HPM_P2
2021/04/18 00:01:28;;;;;;;8.40;2.60;;;4.80;90.80;;;;;;5039585;28;20036;-82
2021/04/18 00:03:54;;;;;;;8.27;1.90;;;4.80;90.90;;;;;;5070265;28;20110;-81
2021/04/18 00:06:21;;;;;;;5.30;1.80;;;4.80;91.00;;;;;;5067374;28;20044;-83
2021/04/18 00:08:48;;;;;;;6.67;2.60;;;4.80;91.10;;;;;;5054255;28;20044;-82
2021/04/18 00:11:16;;;;;;;9.63;2.33;;;4.80;91.20;;;;;;5018416;28;20130;-82
2021/04/18 00:13:44;;;;;;;12.80;2.57;;;4.80;91.40;;;;;;5055341;28;20044;-81
2021/04/18 00:16:10;;;;;;;9.20;2.10;;;4.70;91.50;;;;;;5052005;28;20582;-82
2021/04/18 00:18:37;;;;;;;8.07;2.20;;;4.70;91.70;;;;;;5063494;28;20036;-81
2021/04/18 00:21:04;;;;;;;11.07;3.00;;;4.70;91.90;;;;;;5040480;28;20486;-82
2021/04/18 00:23:30;;;;;;;9.10;2.23;;;4.70;92.30;;;;;;5069604;28;20051;-83
2021/04/18 00:25:57;;;;;;;7.97;2.50;;;4.70;92.10;;;;;;5019815;28;20055;-84
2021/04/18 00:28:30;;;;;;;7.82;2.40;;;4.60;92.20;;;;;;5036492;28;20036;-82
2021/04/18 00:30:57;;;;;;;6.47;1.93;;;4.60;92.20;;;;;;5063145;28;20591;-83
2021/04/18 00:33:24;;;;;;;6.67;2.17;;;4.60;92.20;;;;;;5019756;28;20033;-82
2021/04/18 00:35:51;;;;;;;11.10;2.03;;;4.60;92.20;;;;;;5060856;28;20040;-81
2021/04/18 00:38:19;;;;;;;10.10;2.17;;;4.60;92.20;;;;;;5066992;28;20048;-82
2021/04/18 00:40:45;;;;;;;8.30;2.10;;;4.50;92.20;;;;;;5043435;28;20395;-81
2021/04/18 00:43:12;;;;;;;7.13;2.60;;;4.50;92.30;;;;;;5035572;28;20036;-83
2021/04/18 00:45:39;;;;;;;4.73;1.73;;;4.40;92.30;;;;;;5062701;28;20059;-84
2021/04/18 00:48:06;;;;;;;11.23;2.10;;;4.40;92.30;;;;;;5050640;28;20052;-85
2021/04/18 00:50:35;;;;;;;5.17;1.40;;;4.40;92.30;;;;;;5062691;28;20044;-84
2021/04/18 00:53:05;;;;;;;7.90;1.63;;;4.30;92.30;;;;;;5050025;28;20032;-84
2021/04/18 00:55:38;;;;;;;5.63;1.50;;;4.30;92.40;;;;;;5061701;28;20049;-84
2021/04/18 00:58:06;;;;;;;7.97;1.87;;;4.30;92.70;;;;;;5030979;28;20040;-84
2021/04/18 01:00:35;;;;;;;7.33;1.83;;;4.20;92.50;;;;;;5018491;28;20041;-82
2021/04/18 01:03:03;;;;;;;5.33;2.33;;;4.20;92.50;;;;;;5017487;28;20056;-82
2021/04/18 01:05:34;;;;;;;8.10;2.07;;;4.20;92.60;;;;;;5045656;28;20060;-83
2021/04/18 01:08:01;;;;;;;9.67;1.97;;;4.20;92.60;;;;;;5020190;28;20032;-83
2021/04/18 01:10:29;;;;;;;4.83;1.13;;;4.20;92.60;;;;;;5058626;28;20115;-85
2021/04/18 01:12:56;;;;;;;7.93;2.00;;;4.20;92.60;;;;;;5032135;28;20040;-83
2021/04/18 01:15:23;;;;;;;7.60;2.17;;;4.20;92.70;;;;;;5043833;28;20506;-83
2021/04/18 01:17:49;;;;;;;6.43;2.03;;;4.10;92.80;;;;;;5041326;28;20061;-82
2021/04/18 01:20:19;;;;;;;6.20;1.53;;;4.20;92.90;;;;;;5053274;28;20052;-82
2021/04/18 01:22:48;;;;;;;6.07;2.37;;;4.20;92.90;;;;;;5035305;28;20395;-83
2021/04/18 01:25:33;;;;;;;7.07;2.50;;;4.20;92.90;;;;;;5046906;28;20033;-83
2021/04/18 01:28:08;;;;;;;9.07;2.30;;;4.20;92.90;;;;;;5036534;28;20605;-83
2021/04/18 01:30:35;;;;;;;4.23;1.10;;;4.10;92.90;;;;;;5052377;28;20045;-82
2021/04/18 01:33:03;;;;;;;7.60;2.50;;;4.20;93.00;;;;;;5043666;28;20041;-83
2021/04/18 01:35:31;;;;;;;7.70;2.97;;;4.20;93.10;;;;;;5047640;28;20376;-82
2021/04/18 01:37:57;;;;;;;7.93;2.70;;;4.20;93.10;;;;;;5050123;28;20036;-83
2021/04/18 01:40:25;;;;;;;9.73;3.03;;;4.10;93.10;;;;;;5023597;28;20431;-82
2021/04/18 01:42:52;;;;;;;7.63;3.27;;;4.10;93.20;;;;;;5071942;28;20059;-81
2021/04/18 01:45:20;;;;;;;11.57;3.37;;;4.20;93.30;;;;;;5050575;28;20047;-81
2021/04/18 01:47:48;;;;;;;11.37;3.30;;;4.20;93.40;;;;;;5038389;28;20036;-81
2021/04/18 01:50:17;;;;;;;11.60;3.93;;;4.10;93.40;;;;;;5050557;28;20033;-80
2021/04/18 01:52:46;;;;;;;6.40;2.80;;;4.20;93.50;;;;;;5070380;28;20048;-81
2021/04/18 01:55:14;;;;;;;13.00;3.53;;;4.20;93.60;;;;;;5056089;28;20028;-82
2021/04/18 01:57:41;;;;;;;9.37;3.27;;;4.20;93.60;;;;;;5042844;28;20043;-84
2021/04/18 02:00:14;;;;;;;9.93;3.10;;;4.20;93.80;;;;;;5041227;28;20040;-83
2021/04/18 02:02:41;;;;;;;7.77;2.83;;;4.10;93.80;;;;;;5058984;28;20305;-84
2021/04/18 02:05:20;;;;;;;13.23;4.13;;;4.10;93.80;;;;;;5063606;28;20050;-83
2021/04/18 02:07:47;;;;;;;13.20;5.20;;;4.10;93.90;;;;;;5054764;28;20036;-85
2021/04/18 02:10:15;;;;;;;8.83;3.60;;;4.20;94.10;;;;;;5039678;28;20048;-82
2021/04/18 02:12:44;;;;;;;10.13;3.13;;;4.10;94.20;;;;;;5040421;28;20036;-85
2021/04/18 02:15:13;;;;;;;10.80;4.67;;;4.10;94.20;;;;;;5051760;28;20048;-83
2021/04/18 02:17:41;;;;;;;15.57;6.03;;;4.10;94.30;;;;;;5047331;28;20493;-81
2021/04/18 02:20:09;;;;;;;12.07;4.27;;;4.10;94.40;;;;;;5048526;28;20394;-82
2021/04/18 02:22:35;;;;;;;15.63;5.10;;;4.10;94.50;;;;;;5045436;28;20049;-82
2021/04/18 02:25:03;;;;;;;15.17;4.07;;;4.00;94.50;;;;;;5033123;28;20402;-84
2021/04/18 02:27:30;;;;;;;10.23;3.83;;;4.00;94.60;;;;;;5032425;28;20046;-83
2021/04/18 02:30:06;;;;;;;7.93;2.77;;;4.00;94.60;;;;;;5029037;28;20051;-84
2021/04/18 02:32:41;;;;;;;8.13;2.77;;;3.90;94.60;;;;;;5033108;28;20036;-84
2021/04/18 02:35:10;;;;;;;11.67;3.47;;;3.90;94.60;;;;;;5023857;28;20040;-85
2021/04/18 02:37:38;;;;;;;7.93;3.40;;;3.80;94.60;;;;;;5019385;28;20035;-84
2021/04/18 02:40:05;;;;;;;13.67;3.37;;;3.70;94.70;;;;;;5040597;28;20043;-84
2021/04/18 02:42:32;;;;;;;7.87;2.83;;;3.60;94.70;;;;;;5055772;28;20053;-83
2021/04/18 02:44:59;;;;;;;9.67;3.37;;;3.60;94.70;;;;;;5030906;28;20051;-85
2021/04/18 02:47:33;;;;;;;7.50;2.53;;;3.50;94.70;;;;;;5016269;28;20391;-85
2021/04/18 02:49:59;;;;;;;12.23;3.10;;;3.40;94.90;;;;;;5023858;28;20045;-83
2021/04/18 02:52:26;;;;;;;9.50;2.77;;;3.40;94.70;;;;;;5028366;28;20051;-82
2021/04/18 02:54:52;;;;;;;9.87;3.40;;;3.30;94.70;;;;;;5027745;28;20079;-83
2021/04/18 02:57:22;;;;;;;8.73;2.87;;;3.20;94.80;;;;;;5025862;28;20048;-83
2021/04/18 02:59:50;;;;;;;10.97;4.50;;;3.20;94.90;;;;;;4998170;28;20044;-83
2021/04/18 03:02:18;;;;;;;8.50;3.83;;;3.20;95.10;;;;;;5018515;28;20056;-83
2021/04/18 03:04:48;;;;;;;12.37;3.73;;;3.20;95.20;;;;;;5049183;28;20036;-83
2021/04/18 03:07:15;;;;;;;13.87;5.07;;;3.10;95.20;;;;;;5031477;28;20055;-83
2021/04/18 03:09:43;;;;;;;10.00;4.23;;;3.10;95.20;;;;;;5018897;28;20032;-83
2021/04/18 03:12:12;;;;;;;11.87;4.10;;;3.10;95.30;;;;;;5035176;28;20055;-83
2021/04/18 03:14:43;;;;;;;16.50;5.17;;;3.10;95.30;;;;;;5020402;28;20055;-83
2021/04/18 03:17:13;;;;;;;10.17;4.40;;;3.10;95.40;;;;;;5059007;28;20084;-82
2021/04/18 03:19:53;;;;;;;12.50;4.17;;;3.10;95.50;;;;;;5045039;28;20060;-84
2021/04/18 03:22:20;;;;;;;10.60;4.73;;;3.10;95.60;;;;;;5017171;28;20040;-84
2021/04/18 03:24:47;;;;;;;9.67;4.57;;;3.10;95.60;;;;;;5019367;28;20060;-84
2021/04/18 03:27:17;;;;;;;10.77;4.67;;;3.10;95.70;;;;;;5022120;28;20048;-84
2021/04/18 03:29:49;;;;;;;16.93;5.87;;;3.10;95.80;;;;;;5032212;28;20037;-82
2021/04/18 03:32:17;;;;;;;15.47;4.87;;;3.20;95.90;;;;;;5037092;28;20048;-83
2021/04/18 03:34:47;;;;;;;10.33;4.70;;;3.20;95.90;;;;;;5042188;28;20050;-84
2021/04/18 03:37:14;;;;;;;13.70;4.93;;;3.20;96.10;;;;;;5034038;28;20065;-83
2021/04/18 03:39:41;;;;;;;11.90;4.87;;;3.30;96.30;;;;;;5068357;28;20051;-82
2021/04/18 03:42:20;;;;;;;12.27;4.87;;;3.30;96.10;;;;;;5044684;28;20433;-81
2021/04/18 03:44:47;;;;;;;19.17;6.63;;;3.30;96.10;;;;;;5012341;28;20507;-83
2021/04/18 03:47:14;;;;;;;16.80;6.30;;;3.40;96.30;;;;;;5006255;28;20036;-83
2021/04/18 03:49:52;;;;;;;13.90;5.67;;;3.40;96.40;;;;;;5025180;28;20038;-84
2021/04/18 03:52:25;;;;;;;12.77;5.88;;;3.40;96.40;;;;;;5024297;28;20056;-86
2021/04/18 03:54:52;;;;;;;18.07;6.20;;;3.40;96.40;;;;;;5009730;28;20435;-85
2021/04/18 03:57:18;;;;;;;16.20;8.23;;;3.40;96.50;;;;;;5031148;28;20042;-81
2021/04/18 03:59:45;;;;;;;14.20;6.43;;;3.40;96.60;;;;;;5008988;28;20041;-79
2021/04/18 04:02:13;;;;;;;14.77;6.73;;;3.40;96.70;;;;;;5024211;28;20049;-80
2021/04/18 04:04:43;;;;;;;16.03;6.90;;;3.40;96.80;;;;;;5039674;28;20040;-79
2021/04/18 04:07:12;;;;;;;16.57;5.50;;;3.40;96.80;;;;;;5023538;28;20046;-79
2021/04/18 04:09:39;;;;;;;14.23;7.17;;;3.40;96.80;;;;;;5022676;28;20025;-79
2021/04/18 04:12:06;;;;;;;13.57;6.40;;;3.40;96.90;;;;;;5007922;28;20048;-79
2021/04/18 04:14:41;;;;;;;10.17;4.70;;;3.40;96.90;;;;;;5025926;28;20041;-79
2021/04/18 04:17:09;;;;;;;16.67;6.87;;;3.40;96.90;;;;;;5021946;28;20037;-79
2021/04/18 04:19:54;;;;;;;13.07;6.50;;;3.40;97.00;;;;;;5029310;28;20068;-78
2021/04/18 04:22:52;;;;;;;7.67;4.27;;;3.40;97.10;;;;;;5045373;28;20048;-80
2021/04/18 04:25:22;;;;;;;10.37;4.70;;;3.40;97.20;;;;;;5021402;28;20029;-79
2021/04/18 04:27:49;;;;;;;11.63;5.00;;;3.40;97.10;;;;;;5021369;28;20060;-79
2021/04/18 04:30:16;;;;;;;6.00;3.17;;;3.30;97.10;;;;;;5030874;28;20033;-79
2021/04/18 04:32:42;;;;;;;5.77;3.10;;;3.20;97.00;;;;;;5011267;28;20033;-78
2021/04/18 04:35:09;;;;;;;6.03;2.77;;;3.20;97.00;;;;;;5042905;28;20054;-79
2021/04/18 04:37:36;;;;;;;5.03;2.57;;;3.10;96.90;;;;;;4993197;28;20046;-79
2021/04/18 04:40:03;;;;;;;4.53;3.10;;;3.00;96.90;;;;;;4996394;28;20036;-79
2021/04/18 04:42:29;;;;;;;4.70;3.17;;;2.90;96.90;;;;;;5006847;28;20056;-79
2021/04/18 04:44:56;;;;;;;3.83;2.20;;;2.80;97.00;;;;;;5007198;28;20496;-79
2021/04/18 04:47:22;;;;;;;5.53;2.77;;;2.80;97.10;;;;;;5041931;28;20056;-79
2021/04/18 04:49:49;;;;;;;5.23;3.10;;;2.80;97.10;;;;;;5013801;28;20041;-79
2021/04/18 04:52:15;;;;;;;5.03;2.80;;;2.80;97.00;;;;;;5023524;28;20060;-79
2021/04/18 04:54:42;;;;;;;6.07;2.73;;;2.80;97.00;;;;;;5012009;28;20037;-79
2021/04/18 04:57:09;;;;;;;4.87;2.50;;;2.70;96.90;;;;;;4995716;28;20052;-79
2021/04/18 04:59:35;;;;;;;4.57;2.50;;;2.70;97.00;;;;;;5017524;28;20041;-79
2021/04/18 05:02:02;;;;;;;5.50;3.10;;;2.70;97.00;;;;;;4979313;28;20046;-79
2021/04/18 05:04:28;;;;;;;5.40;2.70;;;2.70;97.00;;;;;;5014368;28;20037;-79
2021/04/18 05:06:55;;;;;;;4.33;2.97;;;2.70;96.90;;;;;;5008772;28;20056;-79
2021/04/18 05:09:22;;;;;;;6.70;3.57;;;2.80;96.90;;;;;;4994066;28;20054;-79
2021/04/18 05:11:49;;;;;;;4.73;2.93;;;2.80;96.90;;;;;;4998800;28;20045;-79
2021/04/18 05:14:15;;;;;;;9.07;3.30;;;2.90;97.00;;;;;;5010779;28;20053;-82
2021/04/18 05:16:42;;;;;;;8.63;3.40;;;3.00;97.00;;;;;;5009147;28;20411;-83
2021/04/18 05:19:08;;;;;;;6.97;3.50;;;3.10;96.90;;;;;;4996944;28;20814;-83
2021/04/18 05:21:35;;;;;;;8.03;3.77;;;3.20;96.90;;;;;;5032710;28;20037;-83
2021/04/18 05:24:01;;;;;;;9.73;4.20;;;3.30;96.80;;;;;;5013917;28;20048;-82
2021/04/18 05:26:28;;;;;;;9.23;4.13;;;3.40;96.70;;;;;;4994689;28;20040;-82
2021/04/18 05:28:55;;;;;;;13.47;5.33;;;3.50;96.70;;;;;;5031074;28;20029;-82
2021/04/18 05:31:22;;;;;;;7.87;4.30;;;3.70;96.60;;;;;;5010562;28;20045;-82
2021/04/18 05:33:49;;;;;;;10.03;4.33;;;3.80;96.90;;;;;;5010073;28;20037;-82
2021/04/18 05:36:16;;;;;;;10.63;4.53;;;3.90;96.60;;;;;;5008792;28;20041;-82
2021/04/18 05:38:43;;;;;;;9.70;4.67;;;4.00;96.60;;;;;;4978822;28;20247;-82
2021/04/18 05:41:09;;;;;;;13.03;5.47;;;4.10;96.50;;;;;;5011164;28;20068;-82
2021/04/18 05:43:36;;;;;;;13.97;5.87;;;4.30;96.50;;;;;;4997992;28;20039;-82
2021/04/18 05:46:02;;;;;;;13.53;5.57;;;4.40;96.40;;;;;;5008456;28;20056;-82
2021/04/18 05:48:29;;;;;;;10.83;5.00;;;4.50;96.40;;;;;;4997079;28;20049;-83
2021/04/18 05:50:56;;;;;;;11.40;5.00;;;4.70;96.40;;;;;;4994859;28;20472;-83
2021/04/18 05:53:22;;;;;;;10.57;5.37;;;4.80;96.30;;;;;;4993954;28;20053;-82
2021/04/18 05:55:49;;;;;;;14.63;5.87;;;5.00;96.30;;;;;;5028832;28;20044;-82
2021/04/18 05:58:16;;;;;;;17.03;5.97;;;5.20;96.20;;;;;;4994138;28;20045;-82
2021/04/18 06:00:43;;;;;;;12.67;5.63;;;5.40;96.10;;;;;;4993784;28;20049;-82
2021/04/18 06:03:10;;;;;;;15.80;6.73;;;5.70;96.10;;;;;;5028878;28;20037;-82
2021/04/18 06:05:36;;;;;;;12.50;6.50;;;5.80;95.90;;;;;;5023199;28;20065;-83
2021/04/18 06:08:03;;;;;;;14.17;6.67;;;6.10;95.90;;;;;;4993906;28;20381;-82
2021/04/18 06:10:30;;;;;;;17.67;7.83;;;6.30;95.70;;;;;;5009821;28;20412;-82
2021/04/18 06:12:56;;;;;;;16.10;6.20;;;6.50;95.60;;;;;;5008857;28;20037;-82
2021/04/18 06:15:23;;;;;;;12.77;6.97;;;6.60;95.40;;;;;;5005509;28;20041;-82
2021/04/18 06:17:58;;;;;;;16.03;6.13;;;6.80;95.30;;;;;;5007956;28;20914;-82
2021/04/18 06:20:25;;;;;;;12.97;6.93;;;7.00;95.20;;;;;;4990578;28;20029;-83
2021/04/18 06:22:52;;;;;;;18.53;9.87;;;7.20;95.10;;;;;;5033663;28;20049;-82
2021/04/18 06:25:18;;;;;;;19.00;6.93;;;7.30;95.00;;;;;;5006023;28;20037;-82
2021/04/18 06:27:46;;;;;;;16.57;7.20;;;7.40;94.50;;;;;;5025265;28;20033;-82
2021/04/18 06:30:13;;;;;;;17.70;6.93;;;7.60;94.50;;;;;;5027008;28;20040;-82
2021/04/18 06:32:40;;;;;;;13.80;7.00;;;7.60;94.20;;;;;;5009534;28;20052;-82
2021/04/18 06:35:08;;;;;;;17.00;6.17;;;7.60;94.10;;;;;;5025556;28;20060;-82
2021/04/18 06:37:35;;;;;;;11.73;5.95;;;7.50;94.10;;;;;;5025692;28;20052;-82
2021/04/18 06:40:03;;;;;;;13.23;5.93;;;7.40;94.10;;;;;;5011785;28;20044;-83
2021/04/18 06:42:30;;;;;;;13.33;6.67;;;7.40;94.10;;;;;;5028691;28;20068;-82
2021/04/18 06:44:58;;;;;;;15.27;5.63;;;7.30;94.00;;;;;;5028369;28;20040;-81
2021/04/18 06:47:25;;;;;;;13.63;5.97;;;7.30;94.10;;;;;;5024118;28;20076;-82
2021/04/18 06:49:53;;;;;;;12.53;5.83;;;7.20;94.10;;;;;;4976436;28;20042;-83
2021/04/18 06:52:20;;;;;;;9.20;5.50;;;7.20;94.20;;;;;;5013884;28;20052;-82
2021/04/18 06:54:53;;;;;;;11.73;5.28;;;7.30;94.20;;;;;;4993674;28;20037;-82
2021/04/18 06:57:20;;;;;;;12.83;5.50;;;7.40;94.20;;;;;;5023931;28;20072;-82
2021/04/18 06:59:46;;;;;;;14.00;5.13;;;7.60;94.10;;;;;;5027157;28;20365;-82
2021/04/18 07:02:31;;;;;;;9.70;4.13;;;7.80;93.90;;;;;;4980388;28;20048;-82
2021/04/18 07:05:01;;;;;;;10.70;4.10;;;7.90;93.70;;;;;;5024955;28;20388;-82
2021/04/18 07:07:37;;;;;;;11.80;3.73;;;8.10;93.60;;;;;;5026212;28;20041;-82
2021/04/18 07:10:13;;;;;;;8.67;3.70;;;8.20;93.40;;;;;;5009707;28;20396;-83
2021/04/18 07:12:41;;;;;;;10.93;3.23;;;8.30;93.20;;;;;;5008538;28;20029;-83
2021/04/18 07:15:08;;;;;;;9.25;3.80;;;8.60;93.10;;;;;;5023801;28;20056;-83
2021/04/18 07:17:47;;;;;;;9.10;2.78;;;8.90;93.00;;;;;;5007973;28;20080;-83
2021/04/18 07:20:16;;;;;;;7.15;2.60;;;9.30;92.50;;;;;;5007237;28;20044;-83
2021/04/18 07:22:42;;;;;;;8.15;3.33;;;9.60;92.10;;;;;;5028851;28;20041;-83
2021/04/18 07:25:10;;;;;;;8.55;3.58;;;9.90;91.50;;;;;;5028909;28;20052;-83
2021/04/18 07:27:53;;;;;;;7.47;3.17;;;10.20;91.00;;;;;;4994594;28;20048;-83
2021/04/18 07:30:23;;;;;;;6.72;2.95;;;10.40;89.80;;;;;;5010198;28;20053;-82
2021/04/18 07:33:05;;;;;;;5.32;2.30;;;10.50;87.90;;;;;;5024866;28;20048;-82
2021/04/18 07:35:37;;;;;;;6.37;2.63;;;10.50;86.90;;;;;;4991496;28;20513;-82
2021/04/18 07:38:24;;;;;;;8.40;3.97;;;10.60;86.40;;;;;;5009960;28;20295;-83
2021/04/18 07:40:56;;;;;;;5.38;2.53;;;10.60;85.30;;;;;;5022151;28;20424;-82
2021/04/18 07:43:23;;;;;;;5.00;2.30;;;10.80;85.10;;;;;;5025668;28;20030;-82
2021/04/18 07:45:51;;;;;;;6.03;2.75;;;10.90;84.80;;;;;;5006614;28;20048;-82
2021/04/18 07:48:19;;;;;;;5.45;2.10;;;11.00;83.20;;;;;;5022098;28;20131;-83
2021/04/18 07:50:47;;;;;;;5.35;2.45;;;11.10;82.90;;;;;;5029063;28;20052;-83
2021/04/18 07:53:18;;;;;;;6.05;3.10;;;11.10;81.40;;;;;;5037105;28;20045;-83
2021/04/18 07:55:46;;;;;;;5.90;2.13;;;11.20;80.00;;;;;;5024395;28;20061;-83
2021/04/18 07:58:13;;;;;;;7.68;2.20;;;11.30;79.20;;;;;;5007466;28;20042;-83
2021/04/18 08:00:39;;;;;;;4.80;1.60;;;11.50;78.60;;;;;;5028006;28;20049;-83
2021/04/18 08:03:06;;;;;;;5.63;1.55;;;11.70;78.80;;;;;;5025883;28;20488;-82
2021/04/18 08:05:34;;;;;;;9.27;2.28;;;12.00;78.40;;;;;;5021109;28;20029;-81
2021/04/18 08:08:06;;;;;;;6.05;2.03;;;12.30;76.80;;;;;;5010680;28;20064;-82
2021/04/18 08:10:47;;;;;;;5.70;1.33;;;12.70;75.80;;;;;;5030391;28;20041;-84
2021/04/18 08:13:21;;;;;;;5.15;1.25;;;13.00;74.80;;;;;;5026235;28;20403;-84
2021/04/18 08:15:55;;;;;;;4.35;1.00;;;13.20;73.50;;;;;;4998605;28;20040;-83
2021/04/18 08:18:34;;;;;;;3.20;0.93;;;13.30;71.70;;;;;;5027336;28;20048;-83
2021/04/18 08:21:01;;;;;;;4.47;1.48;;;13.50;69.90;;;;;;5024142;28;20507;-81
2021/04/18 08:23:39;;;;;;;3.42;1.65;;;13.60;69.90;;;;;;5005195;28;20036;-82
2021/04/18 08:26:12;;;;;;;7.43;2.25;;;13.70;69.10;;;;;;5021251;28;20037;-84
2021/04/18 08:28:54;;;;;;;6.28;2.00;;;13.70;68.50;;;;;;5012728;28;20033;-85
2021/04/18 08:31:28;;;;;;;7.15;2.20;;;13.60;67.30;;;;;;5032210;28;20399;-84
2021/04/18 08:33:58;;;;;;;5.97;1.75;;;13.50;68.30;;;;;;5001696;28;20040;-84
2021/04/18 08:36:27;;;;;;;4.53;1.80;;;13.60;68.00;;;;;;5013322;28;20038;-84
2021/04/18 08:39:05;;;;;;;5.50;1.65;;;13.60;66.30;;;;;;5030714;28;20045;-84
2021/04/18 08:41:44;;;;;;;4.40;1.63;;;13.60;67.00;;;;;;5035954;28;20052;-84
2021/04/18 08:44:26;;;;;;;7.53;3.58;;;13.70;67.00;;;;;;4997968;28;20046;-84
2021/04/18 08:47:13;;;;;;;4.40;1.50;;;13.70;67.20;;;;;;5027768;28;20028;-84
2021/04/18 08:49:43;;;;;;;4.78;2.00;;;13.60;65.70;;;;;;4999184;28;20025;-84
2021/04/18 08:52:25;;;;;;;5.78;1.52;;;13.60;67.00;;;;;;5016685;28;20064;-84
2021/04/18 08:54:54;;;;;;;5.10;1.30;;;13.60;66.60;;;;;;5025251;28;20033;-84
2021/04/18 08:57:27;;;;;;;3.90;1.77;;;13.60;67.20;;;;;;5026593;28;20060;-84
2021/04/18 08:59:56;;;;;;;4.38;1.38;;;13.80;67.10;;;;;;5012472;28;20049;-84
2021/04/18 09:02:28;;;;;;;4.32;1.73;;;13.90;65.80;;;;;;5010216;28;20429;-84
2021/04/18 09:04:57;;;;;;;8.02;1.83;;;14.10;65.60;;;;;;5009023;28;20032;-85
2021/04/18 09:07:29;;;;;;;4.90;1.20;;;14.20;62.80;;;;;;4993854;28;20045;-84
2021/04/18 09:10:00;;;;;;;4.25;1.52;;;14.30;62.20;;;;;;5013280;28;20388;-84
2021/04/18 09:12:27;;;;;;;3.00;1.30;;;14.40;62.40;;;;;;5012931;28;20045;-84
2021/04/18 09:14:56;;;;;;;5.32;1.85;;;14.60;62.40;;;;;;5028653;28;20052;-84
2021/04/18 09:17:28;;;;;;;6.43;1.38;;;14.80;61.10;;;;;;5011503;28;20507;-84
2021/04/18 09:20:07;;;;;;;2.53;1.10;;;14.80;60.10;;;;;;5029999;28;20086;-84
2021/04/18 09:22:36;;;;;;;2.88;1.00;;;15.00;60.90;;;;;;5027671;28;20131;-83
2021/04/18 09:25:18;;;;;;;4.75;1.35;;;15.10;60.50;;;;;;5022553;28;20029;-85
2021/04/18 09:27:51;;;;;;;2.88;1.00;;;15.20;59.70;;;;;;5008930;28;20021;-84
2021/04/18 09:30:20;;;;;;;;;;;15.30;59.70;;;;;;4995467;28;20048;-83
2021/04/18 09:32:51;;;;;;;5.63;1.88;;;15.50;59.40;;;;;;5029243;28;19924;-84
2021/04/18 09:35:24;;;;;;;5.70;1.80;;;15.60;59.40;;;;;;5015774;28;20437;-86
2021/04/18 09:38:02;;;;;;;3.65;1.63;;;15.70;57.50;;;;;;5024772;28;20048;-85
2021/04/18 09:40:39;;;;;;;3.05;1.30;;;15.80;57.10;;;;;;5012210;28;20424;-85
2021/04/18 09:43:07;;;;;;;4.43;1.58;;;16.00;55.50;;;;;;4997533;28;20041;-84
2021/04/18 09:45:35;;;;;;;2.85;1.42;;;16.00;54.50;;;;;;5006929;28;20392;-84
2021/04/18 09:48:11;;;;;;;4.00;1.25;;;16.10;54.20;;;;;;5008871;28;20045;-84
2021/04/18 09:50:59;;;;;;;4.22;1.55;;;16.30;54.60;;;;;;5013333;28;20507;-84
2021/04/18 09:53:26;;;;;;;8.25;2.20;;;16.50;53.80;;;;;;5025143;28;20053;-84
2021/04/18 09:55:59;;;;;;;3.40;1.48;;;16.60;53.00;;;;;;5010235;28;20368;-83
2021/04/18 09:58:28;;;;;;;5.07;1.83;;;16.80;52.40;;;;;;5022670;28;20068;-84
2021/04/18 10:00:56;;;;;;;9.15;2.53;;;16.90;51.60;;;;;;5024621;28;20037;-84
2021/04/18 10:03:35;;;;;;;6.03;2.70;;;17.10;50.90;;;;;;5024177;28;20041;-84
2021/04/18 10:06:01;;;;;;;5.20;2.20;;;17.20;50.60;;;;;;4990990;28;20424;-84
2021/04/18 10:08:32;;;;;;;4.75;2.22;;;17.30;51.20;;;;;;4991125;28;20046;-84
2021/04/18 10:11:08;;;;;;;2.95;1.52;;;17.30;50.50;;;;;;5005284;28;20041;-83
2021/04/18 10:13:54;;;;;;;4.43;1.88;;;17.30;51.00;;;;;;5024647;28;20053;-83
2021/04/18 10:16:36;;;;;;;4.30;1.77;;;17.30;50.40;;;;;;5023360;28;20041;-84
2021/04/18 10:19:05;;;;;;;3.13;1.92;;;17.20;50.50;;;;;;5008461;28;20373;-84
2021/04/18 10:21:32;;;;;;;6.55;2.83;;;17.20;50.40;;;;;;4992462;28;20376;-84
2021/04/18 10:23:58;;;;;;;4.10;2.10;;;17.20;50.40;;;;;;5007376;28;20597;-83
2021/04/18 10:26:25;;;;;;;5.18;2.53;;;17.30;50.30;;;;;;5022887;28;20052;-85
2021/04/18 10:28:54;;;;;;;4.57;2.30;;;17.30;49.90;;;;;;5024624;28;20037;-85
2021/04/18 10:31:45;;;;;;;6.32;2.92;;;17.20;50.20;;;;;;5094011;27;20500;-79
2021/04/18 10:34:12;;;;;;;7.25;2.78;;;17.40;50.20;;;;;;5089974;28;20036;-79
2021/04/18 10:36:38;;;;;;;4.30;2.55;;;17.60;50.80;;;;;;5090382;28;20044;-79
2021/04/18 10:39:05;;;;;;;5.40;2.65;;;18.10;50.00;;;;;;5057496;28;20047;-79
2021/04/18 10:41:32;;;;;;;4.63;2.22;;;18.60;51.00;;;;;;5093323;28;20036;-82
2021/04/18 10:43:58;;;;;;;6.72;2.75;;;19.20;49.60;;;;;;5091060;28;20043;-82
2021/04/18 10:46:25;;;;;;;5.68;2.30;;;19.60;47.70;;;;;;5076706;28;20040;-81
2021/04/18 10:48:51;;;;;;;5.47;3.38;;;19.90;48.40;;;;;;5087729;28;20031;-82
2021/04/18 10:51:18;;;;;;;6.47;3.17;;;20.20;46.80;;;;;;5091452;28;20066;-86
2021/04/18 10:53:44;;;;;;;8.30;2.65;;;20.50;45.40;;;;;;5074729;28;20028;-85
2021/04/18 10:56:11;;;;;;;5.03;2.63;;;20.70;45.70;;;;;;5064816;28;20418;-85
2021/04/18 10:58:38;;;;;;;5.53;3.13;;;20.80;45.40;;;;;;5090694;28;20044;-85
2021/04/18 11:01:04;;;;;;;6.82;3.05;;;21.20;44.20;;;;;;5076463;28;20580;-85
2021/04/18 11:03:32;;;;;;;3.92;2.47;;;21.40;43.80;;;;;;5090598;28;20058;-85
2021/04/18 11:05:58;;;;;;;5.07;2.72;;;21.60;43.40;;;;;;5112601;27;20046;-85
2021/04/18 11:08:25;;;;;;;8.35;3.40;;;21.80;43.10;;;;;;5057788;28;20058;-85
2021/04/18 11:10:51;;;;;;;5.65;3.63;;;21.90;42.70;;;;;;5079399;28;20047;-85
2021/04/18 11:13:18;;;;;;;5.15;2.75;;;22.10;42.70;;;;;;5076097;28;20051;-85
2021/04/18 11:15:44;;;;;;;5.97;3.28;;;22.30;42.10;;;;;;5093618;28;20383;-85
2021/04/18 11:18:11;;;;;;;7.57;3.28;;;22.60;41.80;;;;;;5093874;28;20048;-85
2021/04/18 11:20:39;;;;;;;5.72;3.45;;;22.80;41.50;;;;;;5080762;28;20032;-85
2021/04/18 11:23:06;;;;;;;7.45;3.03;;;23.10;40.00;;;;;;5061801;28;20043;-80
2021/04/18 11:25:32;;;;;;;6.10;2.88;;;23.30;40.60;;;;;;5080133;28;20473;-80
2021/04/18 11:27:59;;;;;;;9.27;3.13;;;23.40;39.90;;;;;;5075378;28;20050;-80
2021/04/18 11:30:25;;;;;;;6.22;2.65;;;23.70;39.10;;;;;;5097734;28;20414;-80
2021/04/18 11:32:52;;;;;;;4.60;2.65;;;23.80;39.40;;;;;;5089133;28;20047;-80
2021/04/18 11:35:19;;;;;;;4.07;2.78;;;24.00;38.20;;;;;;5040985;28;20366;-80
2021/04/18 11:37:47;;;;;;;8.90;3.92;;;23.70;38.20;;;;;;5053646;28;20471;-80
2021/04/18 11:40:16;;;;;;;3.83;2.30;;;23.10;38.50;;;;;;5051851;28;20542;-80
2021/04/18 11:42:45;;;;;;;4.85;2.60;;;22.50;39.40;;;;;;5063066;28;20040;-79
2021/04/18 11:45:14;;;;;;;6.28;3.10;;;22.30;40.60;;;;;;5056198;28;20115;-80
2021/04/18 11:47:41;;;;;;;10.82;3.40;;;22.80;40.30;;;;;;5024402;28;20040;-80
2021/04/18 11:50:08;;;;;;;5.38;3.08;;;23.10;39.10;;;;;;5075900;28;20049;-80
2021/04/18 11:52:35;;;;;;;6.07;3.17;;;23.10;38.50;;;;;;5050938;28;20047;-80
2021/04/18 11:55:01;;;;;;;6.38;3.33;;;22.80;38.40;;;;;;5053046;28;20051;-80
2021/04/18 11:57:28;;;;;;;9.77;3.60;;;22.40;38.90;;;;;;5060779;28;20040;-79
2021/04/18 11:59:54;;;;;;;6.38;2.60;;;22.00;39.40;;;;;;5066109;28;20052;-80
2021/04/18 12:02:22;;;;;;;6.85;2.70;;;21.70;40.30;;;;;;5076414;28;20526;-80
2021/04/18 12:04:48;;;;;;;5.85;3.35;;;21.60;40.30;;;;;;5042958;28;20039;-81
2021/04/18 12:07:15;;;;;;;12.98;8.98;;;21.50;40.90;;;;;;5054562;28;20047;-79
2021/04/18 12:09:42;;;;;;;9.68;4.88;;;21.40;40.50;;;;;;5062447;28;20051;-79
2021/04/18 12:12:08;;;;;;;7.80;6.05;;;21.70;40.40;;;;;;5079100;28;20546;-79
2021/04/18 12:14:35;;;;;;;6.45;4.00;;;21.70;39.60;;;;;;5075421;28;20037;-83
2021/04/18 12:17:02;;;;;;;4.32;3.05;;;21.80;40.80;;;;;;5020391;28;20391;-79
2021/04/18 12:19:28;;;;;;;5.90;3.30;;;22.70;39.80;;;;;;5080830;28;20036;-80
2021/04/18 12:21:54;;;;;;;5.05;2.95;;;23.60;37.90;;;;;;5073090;28;20043;-80
2021/04/18 12:24:21;;;;;;;6.47;3.22;;;24.30;36.30;;;;;;5078308;28;20028;-80
2021/04/18 12:26:47;;;;;;;6.03;3.22;;;24.50;34.50;;;;;;5071598;28;20059;-81
2021/04/18 12:29:15;;;;;;;6.82;3.45;;;23.90;34.80;;;;;;5057655;28;20392;-82
2021/04/18 12:31:41;;;;;;;9.15;2.95;;;23.20;35.50;;;;;;5058182;28;20036;-81
2021/04/18 12:34:08;;;;;;;7.78;2.95;;;22.60;36.40;;;;;;5056527;28;20048;-81
2021/04/18 12:36:36;;;;;;;5.53;2.30;;;22.10;36.70;;;;;;5037377;28;20044;-81
2021/04/18 12:39:07;;;;;;;4.47;2.53;;;21.60;37.40;;;;;;5033268;28;20032;-81
2021/04/18 12:41:35;;;;;;;5.78;3.15;;;21.30;38.40;;;;;;5076843;28;20043;-81
2021/04/18 12:44:02;;;;;;;5.55;3.03;;;21.10;39.10;;;;;;5071147;28;20513;-81
2021/04/18 12:46:30;;;;;;;5.90;2.92;;;21.50;39.60;;;;;;5066492;28;20498;-81
2021/04/18 12:48:59;;;;;;;4.50;2.22;;;22.30;38.00;;;;;;5058584;28;20112;-81
2021/04/18 12:51:27;;;;;;;6.35;2.90;;;22.50;37.10;;;;;;5077593;28;20048;-81
2021/04/18 12:53:55;;;;;;;5.80;2.30;;;22.40;36.90;;;;;;5059758;28;20032;-81
2021/04/18 12:56:21;;;;;;;6.43;2.25;;;22.60;37.50;;;;;;5055131;28;20394;-81
2021/04/18 12:58:48;;;;;;;6.03;1.92;;;23.50;35.40;;;;;;5059347;28;20516;-81
2021/04/18 13:01:15;;;;;;;4.50;1.88;;;24.60;34.20;;;;;;5062234;28;20048;-81